Time;durP1;ratioP1;P1;durP2;ratioP2;P2;SDS_P1;SDS_P2;PMS_P1;PMS_P2;Temp;Humidity;BMP_temperature;BMP_pressure;BME280_temperature;BME280_humidity;BME280_pressure;Samples;Min_cycle;Max_cycle;Signal;HPM_P1;HPM_P2
2022/10/01 00:02:06;;;;;;;6.93;3.53;;;14.90;87.60;;;;;;6163224;23;20202;-92
2022/10/01 00:04:36;;;;;;;9.50;4.20;;;14.90;88.80;;;;;;6160656;23;20162;-92
2022/10/01 00:07:09;;;;;;;6.87;3.20;;;14.90;89.20;;;;;;6158238;23;20173;-91
2022/10/01 00:09:45;;;;;;;7.60;3.57;;;14.90;89.00;;;;;;6157084;23;20170;-95
2022/10/01 00:12:14;;;;;;;10.57;4.30;;;14.90;88.90;;;;;;6155458;23;20175;-90
2022/10/01 00:14:43;;;;;;;8.27;3.90;;;14.90;89.50;;;;;;6154111;23;20198;-90
2022/10/01 00:17:19;;;;;;;6.70;3.47;;;14.90;89.50;;;;;;6152864;23;20185;-89
2022/10/01 00:19:47;;;;;;;10.13;4.30;;;14.90;89.40;;;;;;6152522;23;20255;-89
2022/10/01 00:22:14;;;;;;;9.97;4.07;;;15.00;89.60;;;;;;6152626;23;20710;-90
2022/10/01 00:24:44;;;;;;;12.60;4.60;;;15.00;89.50;;;;;;6152294;23;20911;-91
2022/10/01 00:27:13;;;;;;;8.20;3.47;;;15.00;90.20;;;;;;6152767;23;20173;-89
2022/10/01 00:29:44;;;;;;;7.57;3.23;;;15.00;90.00;;;;;;6153185;23;20178;-90
2022/10/01 00:32:16;;;;;;;8.90;3.27;;;15.00;90.90;;;;;;6152949;23;20192;-93
2022/10/01 00:34:57;;;;;;;12.67;4.57;;;15.00;90.60;;;;;;6151886;23;20201;-91
2022/10/01 00:37:24;;;;;;;8.37;3.70;;;15.00;90.80;;;;;;6152083;23;20902;-90
2022/10/01 00:42:35;;;;;;;9.80;3.73;;;15.00;90.60;;;;;;6150771;23;20173;-91
2022/10/01 00:45:04;;;;;;;10.70;3.87;;;15.10;90.30;;;;;;6152231;23;20174;-91
2022/10/01 00:47:34;;;;;;;7.30;3.37;;;15.10;90.40;;;;;;6152094;23;20182;-92
2022/10/01 00:50:09;;;;;;;7.10;3.40;;;15.10;90.60;;;;;;6151929;23;20253;-91
2022/10/01 00:52:40;;;;;;;9.07;4.07;;;15.10;90.70;;;;;;6152039;23;20174;-88
2022/10/01 00:55:13;;;;;;;9.07;3.57;;;15.10;90.80;;;;;;6151381;23;20192;-86
2022/10/01 01:00:30;;;;;;;10.13;3.93;;;15.20;90.50;;;;;;6134379;23;20197;-88
2022/10/01 01:02:57;;;;;;;10.87;3.97;;;15.20;90.30;;;;;;6151154;23;20270;-91
2022/10/01 01:05:24;;;;;;;11.23;4.37;;;15.20;90.50;;;;;;6150882;23;20228;-89
2022/10/01 01:08:00;;;;;;;8.90;3.47;;;15.20;90.70;;;;;;6123917;23;20177;-91
2022/10/01 01:10:33;;;;;;;9.47;3.50;;;15.30;90.90;;;;;;6149498;23;20178;-90
2022/10/01 01:13:12;;;;;;;9.97;3.57;;;15.20;91.30;;;;;;6149217;23;20651;-90
2022/10/01 01:15:47;;;;;;;12.43;4.00;;;15.20;91.40;;;;;;6150463;23;20188;-90
2022/10/01 01:18:20;;;;;;;12.33;4.23;;;15.20;91.40;;;;;;6149965;23;20165;-90
2022/10/01 01:21:00;;;;;;;11.47;3.90;;;15.30;91.70;;;;;;6150015;23;20197;-90
2022/10/01 01:23:46;;;;;;;6.33;2.80;;;15.30;91.50;;;;;;6151702;23;20176;-88
2022/10/01 01:26:41;;;;;;;9.20;3.27;;;15.30;91.60;;;;;;6152785;23;20182;-90
2022/10/01 01:29:15;;;;;;;5.53;2.47;;;15.30;91.80;;;;;;6152242;23;20192;-90
2022/10/01 01:31:46;;;;;;;6.10;2.63;;;15.30;91.10;;;;;;6151376;23;20216;-89
2022/10/01 01:34:20;;;;;;;7.50;3.10;;;15.40;91.50;;;;;;6153276;23;20203;-89
2022/10/01 01:36:55;;;;;;;7.93;2.93;;;15.40;91.50;;;;;;6153904;23;20170;-88
2022/10/01 01:39:31;;;;;;;8.10;2.87;;;15.40;91.50;;;;;;6152784;23;20169;-90
2022/10/01 01:42:04;;;;;;;26.30;7.53;;;15.50;91.30;;;;;;6153906;23;20162;-90
2022/10/01 01:44:42;;;;;;;9.47;3.17;;;15.50;91.60;;;;;;6184374;23;20208;-91
2022/10/01 01:50:01;;;;;;;6.53;2.27;;;15.50;91.70;;;;;;6183822;23;20268;-92
2022/10/01 01:52:30;;;;;;;11.53;3.87;;;15.50;91.60;;;;;;6182884;23;20189;-92
2022/10/01 01:54:58;;;;;;;9.33;3.10;;;15.60;91.70;;;;;;6184841;23;20187;-90
2022/10/01 01:57:26;;;;;;;10.20;2.97;;;15.60;92.10;;;;;;6184399;23;20174;-92
2022/10/01 01:59:55;;;;;;;15.10;4.63;;;15.60;91.90;;;;;;6182303;23;20169;-92
2022/10/01 02:02:26;;;;;;;13.33;4.30;;;15.70;92.40;;;;;;6181377;23;20550;-93
2022/10/01 02:04:55;;;;;;;8.63;2.97;;;15.70;92.50;;;;;;6181946;23;20211;-91
2022/10/01 02:08:03;;;;;;;13.17;3.80;;;15.70;92.50;;;;;;6182566;23;20218;-91
2022/10/01 02:10:43;;;;;;;9.07;2.90;;;15.80;92.90;;;;;;6181120;23;20276;-88
2022/10/01 02:13:26;;;;;;;9.40;3.27;;;15.80;92.60;;;;;;6184000;23;20185;-90
2022/10/01 02:16:03;;;;;;;24.27;7.30;;;15.90;92.90;;;;;;6194436;23;20173;-90
2022/10/01 02:18:34;;;;;;;5.17;2.17;;;15.90;92.80;;;;;;6185066;23;20603;-90
2022/10/01 02:21:11;;;;;;;10.90;3.33;;;15.90;92.70;;;;;;6183386;23;20229;-88
2022/10/01 02:23:44;;;;;;;5.00;2.07;;;15.90;92.40;;;;;;6183160;23;20186;-89
2022/10/01 02:26:17;;;;;;;9.30;2.70;;;16.00;92.60;;;;;;6194481;23;20267;-90
2022/10/01 02:31:35;;;;;;;6.57;2.47;;;16.10;92.70;;;;;;6185213;23;20205;-91
2022/10/01 02:34:07;;;;;;;12.70;3.83;;;16.10;92.90;;;;;;6185710;23;20191;-93
2022/10/01 02:36:44;;;;;;;6.07;2.43;;;16.10;92.90;;;;;;6183680;23;20169;-90
2022/10/01 02:39:15;;;;;;;8.63;3.00;;;16.20;92.80;;;;;;6182377;23;20372;-92
2022/10/01 02:41:58;;;;;;;8.00;2.47;;;16.20;92.90;;;;;;6182531;23;20198;-91
2022/10/01 02:44:41;;;;;;;10.67;3.23;;;16.30;92.70;;;;;;6183465;23;20713;-90
2022/10/01 02:47:14;;;;;;;7.50;2.53;;;16.30;93.20;;;;;;6182448;23;20167;-91
2022/10/01 02:49:42;;;;;;;7.37;2.30;;;16.30;92.90;;;;;;6220759;22;20206;-90
2022/10/01 02:52:24;;;;;;;7.53;2.63;;;16.40;92.50;;;;;;6244431;23;20170;-91
2022/10/01 02:54:57;;;;;;;6.10;2.40;;;16.40;93.10;;;;;;6259458;23;20199;-89
2022/10/01 02:57:25;;;;;;;5.17;1.77;;;16.40;93.20;;;;;;6243813;23;20696;-90
2022/10/01 02:59:56;;;;;;;8.90;2.83;;;16.50;92.80;;;;;;6244646;23;20164;-89
2022/10/01 03:02:28;;;;;;;6.63;2.53;;;16.50;93.00;;;;;;6242942;23;20637;-90
2022/10/01 03:04:56;;;;;;;6.50;2.57;;;16.50;93.20;;;;;;6242667;23;20169;-90
2022/10/01 03:07:27;;;;;;;10.43;3.47;;;16.60;92.90;;;;;;6241457;23;20177;-89
2022/10/01 03:09:55;;;;;;;7.43;2.83;;;16.60;93.30;;;;;;6242068;23;20188;-91
2022/10/01 03:12:23;;;;;;;10.07;2.73;;;16.60;92.70;;;;;;6242087;23;20610;-89
2022/10/01 03:14:50;;;;;;;10.93;3.57;;;16.60;92.90;;;;;;6241215;23;20725;-89
2022/10/01 03:17:18;;;;;;;8.60;2.87;;;16.70;92.80;;;;;;6241391;23;20232;-89
2022/10/01 03:19:47;;;;;;;7.03;2.63;;;16.70;93.00;;;;;;6241929;23;20184;-90
2022/10/01 03:22:23;;;;;;;16.90;4.30;;;16.70;92.90;;;;;;6241272;23;20565;-91
2022/10/01 03:24:50;;;;;;;8.80;2.90;;;16.80;93.30;;;;;;6242343;23;20471;-91
2022/10/01 03:27:18;;;;;;;15.97;4.10;;;16.80;92.80;;;;;;6240582;23;20207;-90
2022/10/01 03:29:45;;;;;;;8.40;2.63;;;16.80;93.20;;;;;;6242231;23;20176;-90
2022/10/01 03:32:13;;;;;;;10.37;3.07;;;16.90;92.90;;;;;;6241924;23;20233;-90
2022/10/01 03:34:41;;;;;;;7.27;2.77;;;16.90;93.00;;;;;;6242937;23;20230;-91
2022/10/01 03:37:12;;;;;;;8.23;2.70;;;16.90;93.00;;;;;;6242194;23;20195;-90
2022/10/01 03:39:39;;;;;;;6.97;2.40;;;16.90;93.30;;;;;;6241958;23;20167;-92
2022/10/01 03:42:06;;;;;;;11.17;3.53;;;17.00;93.00;;;;;;6241637;23;20203;-90
2022/10/01 03:44:34;;;;;;;12.17;3.67;;;17.00;93.00;;;;;;6242436;23;20171;-91
2022/10/01 03:47:02;;;;;;;7.13;2.50;;;17.00;93.20;;;;;;6240835;23;20175;-89
2022/10/01 03:49:41;;;;;;;12.00;3.30;;;17.10;93.20;;;;;;6214310;23;20176;-91
2022/10/01 03:52:09;;;;;;;9.67;3.23;;;17.10;93.00;;;;;;6241976;23;20195;-90
2022/10/01 03:54:37;;;;;;;10.23;2.47;;;17.10;93.30;;;;;;6240404;23;20280;-91
2022/10/01 03:57:04;;;;;;;12.80;3.90;;;17.10;93.00;;;;;;6239874;23;20167;-92
2022/10/01 03:59:31;;;;;;;9.40;3.23;;;17.20;93.00;;;;;;6239830;23;20182;-89
2022/10/01 04:01:59;;;;;;;8.17;2.80;;;17.20;93.10;;;;;;6240819;23;20172;-89
2022/10/01 04:04:27;;;;;;;14.43;4.67;;;17.20;93.10;;;;;;6239300;23;20214;-91
2022/10/01 04:06:54;;;;;;;12.57;3.67;;;17.30;93.20;;;;;;6239886;23;20167;-90
2022/10/01 04:09:23;;;;;;;10.53;3.80;;;17.30;93.20;;;;;;6239444;23;20169;-91
2022/10/01 04:11:50;;;;;;;14.50;4.30;;;17.30;93.50;;;;;;6240546;23;20176;-92
2022/10/01 04:14:18;;;;;;;9.93;3.13;;;17.30;93.20;;;;;;6240163;23;20200;-91
2022/10/01 04:16:44;;;;;;;9.07;3.07;;;17.30;93.20;;;;;;6240569;23;20189;-90
2022/10/01 04:19:14;;;;;;;11.50;3.40;;;17.40;93.30;;;;;;6240100;23;20181;-90
2022/10/01 04:21:42;;;;;;;12.33;3.30;;;17.40;93.30;;;;;;6240258;23;20196;-91
2022/10/01 04:24:09;;;;;;;12.57;3.80;;;17.40;93.50;;;;;;6241112;23;20196;-90
2022/10/01 04:29:19;;;;;;;8.07;3.10;;;17.40;93.50;;;;;;6202449;23;20218;-92
2022/10/01 04:31:46;;;;;;;13.03;4.57;;;17.50;93.40;;;;;;6247970;22;20171;-90
2022/10/01 04:34:13;;;;;;;11.20;3.83;;;17.50;93.10;;;;;;6245587;23;20204;-91
2022/10/01 04:36:41;;;;;;;10.83;3.50;;;17.50;93.10;;;;;;6243976;23;20163;-90
2022/10/01 04:39:09;;;;;;;11.83;3.50;;;17.50;93.20;;;;;;6241035;23;20219;-91
2022/10/01 04:41:41;;;;;;;7.17;2.70;;;17.50;93.10;;;;;;6242811;23;20173;-89
2022/10/01 04:44:11;;;;;;;9.80;3.43;;;17.50;93.30;;;;;;6242173;23;20164;-92
2022/10/01 04:46:38;;;;;;;15.67;3.77;;;17.50;93.20;;;;;;6238782;22;20216;-93
2022/10/01 04:49:06;;;;;;;10.20;3.43;;;17.60;92.80;;;;;;6240830;23;20755;-90
2022/10/01 04:51:36;;;;;;;13.93;4.17;;;17.60;92.80;;;;;;6240909;22;20955;-92
2022/10/01 04:54:11;;;;;;;14.37;3.50;;;17.60;92.80;;;;;;6240703;23;20184;-93
2022/10/01 04:56:39;;;;;;;12.73;3.60;;;17.60;92.80;;;;;;6240034;23;20169;-91
2022/10/01 04:59:07;;;;;;;9.90;3.53;;;17.60;93.10;;;;;;6241392;23;20214;-91
2022/10/01 05:01:36;;;;;;;9.93;3.20;;;17.70;93.30;;;;;;6241169;23;20205;-92
2022/10/01 05:04:04;;;;;;;10.83;3.43;;;17.70;93.30;;;;;;6215221;23;20184;-90
2022/10/01 05:06:31;;;;;;;13.37;3.83;;;17.70;93.20;;;;;;6242297;23;20248;-90
2022/10/01 05:08:58;;;;;;;13.90;4.93;;;17.70;93.10;;;;;;6242614;23;20205;-90
2022/10/01 05:11:25;;;;;;;9.40;3.37;;;17.70;93.00;;;;;;6242757;23;20170;-94
2022/10/01 05:13:54;;;;;;;12.63;3.70;;;17.70;93.00;;;;;;6242007;23;20164;-90
2022/10/01 05:16:21;;;;;;;12.80;3.60;;;17.70;93.30;;;;;;6216501;23;20232;-91
2022/10/01 05:18:48;;;;;;;9.37;2.93;;;17.70;93.10;;;;;;6244027;23;20170;-92
2022/10/01 05:21:15;;;;;;;14.43;4.00;;;17.70;93.20;;;;;;6243722;23;20226;-90
2022/10/01 05:23:44;;;;;;;13.13;4.87;;;17.70;93.10;;;;;;6243757;23;20171;-92
2022/10/01 05:26:12;;;;;;;8.53;3.17;;;17.70;93.30;;;;;;6244857;23;20599;-91
2022/10/01 05:28:43;;;;;;;10.17;3.10;;;17.80;93.40;;;;;;6244623;23;20457;-89
2022/10/01 05:31:14;;;;;;;9.63;3.33;;;17.80;93.20;;;;;;6244426;23;20237;-93
2022/10/01 05:33:43;;;;;;;12.23;4.30;;;17.70;93.70;;;;;;6245798;23;20168;-92
2022/10/01 05:36:11;;;;;;;10.07;3.33;;;17.80;93.70;;;;;;6245522;23;20193;-96
2022/10/01 05:38:39;;;;;;;18.37;6.10;;;17.80;93.30;;;;;;6247257;23;20240;-91
2022/10/01 05:41:06;;;;;;;10.10;3.40;;;17.80;93.60;;;;;;6244876;23;20556;-90
2022/10/01 05:43:35;;;;;;;13.23;3.20;;;17.80;93.50;;;;;;6246798;23;20170;-90
2022/10/01 05:46:04;;;;;;;19.93;4.80;;;17.80;93.50;;;;;;6246283;23;20635;-92
2022/10/01 05:48:36;;;;;;;14.10;3.10;;;17.80;93.70;;;;;;6246897;23;20185;-92
2022/10/01 05:53:47;;;;;;;16.57;3.77;;;17.80;93.40;;;;;;6244170;23;20199;-91
2022/10/01 05:56:15;;;;;;;11.13;3.43;;;17.80;93.20;;;;;;6242581;23;20222;-90
2022/10/01 05:58:42;;;;;;;15.57;4.67;;;17.80;93.30;;;;;;6242891;23;20165;-91
2022/10/01 06:01:09;;;;;;;16.83;5.33;;;17.90;93.20;;;;;;6242904;23;20201;-91
2022/10/01 06:03:38;;;;;;;11.60;3.70;;;17.90;93.50;;;;;;6251027;23;20185;-89
2022/10/01 06:06:05;;;;;;;17.50;4.93;;;17.90;93.40;;;;;;6255407;23;20171;-90
2022/10/01 06:08:34;;;;;;;21.37;5.13;;;17.90;93.10;;;;;;6243600;23;20170;-91
2022/10/01 06:11:06;;;;;;;11.30;3.77;;;17.80;93.20;;;;;;6245675;23;20545;-91
2022/10/01 06:16:20;;;;;;;18.73;4.43;;;17.90;93.10;;;;;;6251208;23;20264;-91
2022/10/01 06:18:56;;;;;;;15.77;4.40;;;17.90;92.70;;;;;;6256175;23;20233;-88
2022/10/01 06:21:23;;;;;;;18.93;5.53;;;17.90;92.80;;;;;;6262406;23;20197;-91
2022/10/01 06:24:10;;;;;;;13.10;3.00;;;17.90;92.50;;;;;;6265783;23;20165;-91
2022/10/01 06:26:38;;;;;;;9.33;2.30;;;17.90;92.70;;;;;;6266269;23;20204;-90
2022/10/01 06:29:20;;;;;;;10.73;2.57;;;17.90;92.30;;;;;;6268875;23;20177;-90
2022/10/01 06:31:50;;;;;;;15.10;4.67;;;17.90;92.40;;;;;;6268235;23;20164;-89
2022/10/01 06:34:21;;;;;;;8.97;3.10;;;17.90;92.10;;;;;;6254177;23;20253;-90
2022/10/01 06:36:49;;;;;;;10.53;3.50;;;17.80;92.00;;;;;;6247588;23;20186;-90
2022/10/01 06:39:17;;;;;;;17.20;4.00;;;17.80;91.80;;;;;;6244838;23;20169;-90
2022/10/01 06:41:44;;;;;;;12.63;3.40;;;17.80;91.70;;;;;;6242637;23;20194;-90
2022/10/01 06:44:12;;;;;;;13.67;4.33;;;17.90;91.60;;;;;;6242582;23;20907;-89
2022/10/01 06:46:39;;;;;;;13.17;3.20;;;17.90;91.60;;;;;;6242282;23;20192;-90
2022/10/01 06:49:06;;;;;;;15.07;4.60;;;17.90;91.90;;;;;;6248214;23;20177;-90
2022/10/01 06:54:24;;;;;;;10.90;3.30;;;17.90;91.70;;;;;;6244551;23;20665;-90
2022/10/01 06:56:52;;;;;;;12.03;3.60;;;17.90;91.60;;;;;;6244022;23;20235;-90
2022/10/01 06:59:21;;;;;;;14.83;3.93;;;17.90;91.60;;;;;;6242728;23;20166;-89
2022/10/01 07:01:49;;;;;;;16.37;3.20;;;17.90;91.60;;;;;;6242409;23;20232;-89
2022/10/01 07:04:17;;;;;;;15.40;4.30;;;17.90;91.60;;;;;;6241699;23;20283;-89
2022/10/01 07:07:09;;;;;;;13.77;3.17;;;17.90;91.50;;;;;;6241939;23;20263;-88
2022/10/01 07:09:37;;;;;;;15.73;4.10;;;17.90;91.60;;;;;;6231156;23;20194;-89
2022/10/01 07:12:04;;;;;;;12.83;4.03;;;17.90;91.60;;;;;;6240811;23;20167;-89
2022/10/01 07:14:31;;;;;;;13.87;3.80;;;17.90;91.60;;;;;;6241292;23;20170;-88
2022/10/01 07:16:58;;;;;;;18.40;4.40;;;17.90;91.40;;;;;;6241146;23;20813;-89
2022/10/01 07:19:25;;;;;;;18.70;5.40;;;17.90;91.50;;;;;;6240690;23;20595;-88
2022/10/01 07:21:53;;;;;;;13.17;4.20;;;17.90;91.60;;;;;;6240000;23;20554;-88
2022/10/01 07:24:21;;;;;;;16.13;4.40;;;17.90;92.10;;;;;;6240078;23;20197;-88
2022/10/01 07:26:49;;;;;;;15.23;4.13;;;17.90;91.90;;;;;;6241255;23;20250;-89
2022/10/01 07:29:17;;;;;;;13.17;4.10;;;17.90;92.20;;;;;;6240464;23;20209;-88
2022/10/01 07:31:47;;;;;;;10.83;3.57;;;17.90;91.90;;;;;;6240724;23;20176;-89
2022/10/01 07:34:14;;;;;;;17.53;4.40;;;18.00;91.90;;;;;;6240511;23;20170;-88
2022/10/01 07:36:44;;;;;;;16.20;4.53;;;18.00;92.40;;;;;;6240124;23;20577;-90
2022/10/01 07:39:12;;;;;;;14.30;4.80;;;18.00;92.20;;;;;;6241625;23;20183;-87
2022/10/01 07:41:39;;;;;;;14.33;4.00;;;18.00;92.30;;;;;;6241154;23;20241;-88
2022/10/01 07:44:06;;;;;;;13.13;3.57;;;18.00;92.10;;;;;;6241219;23;20250;-89
2022/10/01 07:46:35;;;;;;;17.60;4.43;;;18.10;92.30;;;;;;6240920;23;20202;-90
2022/10/01 07:49:03;;;;;;;10.50;3.10;;;18.10;92.20;;;;;;6241508;23;20162;-88
2022/10/01 07:51:30;;;;;;;15.50;4.00;;;18.10;92.00;;;;;;6240755;23;20222;-88
2022/10/01 07:53:57;;;;;;;14.13;4.10;;;18.20;91.90;;;;;;6241274;23;20171;-89
2022/10/01 07:56:26;;;;;;;17.33;5.07;;;18.20;92.00;;;;;;6241898;23;20570;-88
2022/10/01 07:58:55;;;;;;;15.53;3.80;;;18.20;92.30;;;;;;6240663;23;20832;-89
2022/10/01 08:01:22;;;;;;;14.63;4.17;;;18.30;92.20;;;;;;6241431;23;20488;-88
2022/10/01 08:03:51;;;;;;;21.57;5.37;;;18.30;91.80;;;;;;6241903;23;20171;-89
2022/10/01 08:06:19;;;;;;;19.87;5.97;;;18.40;92.20;;;;;;6243776;23;20263;-92
2022/10/01 08:08:47;;;;;;;14.70;4.00;;;18.40;92.10;;;;;;6240218;23;20558;-90
2022/10/01 08:11:16;;;;;;;17.00;4.67;;;18.50;91.80;;;;;;6240153;23;20224;-87
2022/10/01 08:13:45;;;;;;;23.13;5.67;;;18.50;91.90;;;;;;6239887;23;20174;-87
2022/10/01 08:16:13;;;;;;;14.13;4.10;;;18.60;92.20;;;;;;6240989;23;20205;-87
2022/10/01 08:18:40;;;;;;;18.60;4.90;;;18.60;91.80;;;;;;6240785;23;20167;-88
2022/10/01 08:21:08;;;;;;;23.57;5.10;;;18.70;91.60;;;;;;6240284;23;20199;-88
2022/10/01 08:23:35;;;;;;;15.63;3.90;;;18.70;91.40;;;;;;6239787;23;20250;-90
2022/10/01 08:26:05;;;;;;;13.37;4.27;;;18.70;91.10;;;;;;6239434;23;20377;-88
2022/10/01 08:28:33;;;;;;;20.30;4.40;;;18.80;91.40;;;;;;6240573;23;20163;-89
2022/10/01 08:31:08;;;;;;;12.43;4.30;;;18.80;91.30;;;;;;6240992;23;20277;-88
2022/10/01 08:33:36;;;;;;;18.07;4.37;;;18.90;90.90;;;;;;6240661;23;20594;-87
2022/10/01 08:36:03;;;;;;;17.17;4.23;;;18.90;91.00;;;;;;6239642;23;20195;-87
2022/10/01 08:38:32;;;;;;;13.93;4.87;;;19.00;91.00;;;;;;6240121;23;20966;-90
2022/10/01 08:41:07;;;;;;;9.63;3.80;;;19.10;90.80;;;;;;6240654;23;20241;-91
2022/10/01 08:43:37;;;;;;;18.07;5.43;;;19.20;91.60;;;;;;6241732;23;20174;-87
2022/10/01 08:46:13;;;;;;;15.73;4.57;;;19.30;91.10;;;;;;6241568;23;20535;-87
2022/10/01 08:48:52;;;;;;;21.00;5.17;;;19.50;90.30;;;;;;6240934;23;20167;-88
2022/10/01 08:51:27;;;;;;;16.17;4.50;;;19.60;89.00;;;;;;6240134;23;20214;-90
2022/10/01 08:53:57;;;;;;;18.30;4.53;;;19.70;89.10;;;;;;6240090;23;20194;-90
2022/10/01 08:56:30;;;;;;;21.47;5.57;;;19.90;89.90;;;;;;6240153;23;20545;-89
2022/10/01 08:59:09;;;;;;;18.77;5.53;;;20.00;87.90;;;;;;6239773;23;20171;-89
2022/10/01 09:01:39;;;;;;;19.50;4.90;;;20.10;86.50;;;;;;6240785;23;20172;-88
2022/10/01 09:04:09;;;;;;;17.03;4.77;;;20.30;86.50;;;;;;6242129;23;20163;-87
2022/10/01 09:06:37;;;;;;;17.70;4.17;;;20.30;85.80;;;;;;6241217;23;20171;-89
2022/10/01 09:09:26;;;;;;;19.33;5.40;;;20.40;85.60;;;;;;6239420;23;20184;-88
2022/10/01 09:12:09;;;;;;;16.90;4.33;;;20.60;84.30;;;;;;6240239;23;20226;-88
2022/10/01 09:15:04;;;;;;;14.80;3.97;;;20.70;83.20;;;;;;6239943;23;20250;-89
2022/10/01 09:17:48;;;;;;;10.43;2.93;;;20.80;83.40;;;;;;6238966;23;20195;-89
2022/10/01 09:20:23;;;;;;;13.13;4.13;;;20.90;80.00;;;;;;6239912;23;20199;-88
2022/10/01 09:23:01;;;;;;;15.10;4.43;;;21.10;79.60;;;;;;6241154;23;20563;-89
2022/10/01 09:25:30;;;;;;;14.93;3.53;;;21.20;76.70;;;;;;6239506;23;20183;-87
2022/10/01 09:28:11;;;;;;;16.47;3.63;;;21.30;77.30;;;;;;6240664;23;20625;-90
2022/10/01 09:30:42;;;;;;;13.10;4.00;;;21.30;74.00;;;;;;6240452;23;20193;-88
2022/10/01 09:33:16;;;;;;;11.43;3.63;;;21.40;74.30;;;;;;6240559;23;20160;-88
2022/10/01 09:35:46;;;;;;;14.13;4.10;;;21.40;74.40;;;;;;6239514;23;20222;-89
2022/10/01 09:38:20;;;;;;;9.57;3.43;;;21.50;74.90;;;;;;6241501;23;20168;-89
2022/10/01 09:40:53;;;;;;;16.67;4.53;;;21.50;73.80;;;;;;6248698;23;20169;-88
2022/10/01 09:43:22;;;;;;;15.10;3.93;;;21.60;74.50;;;;;;6242876;23;20750;-88
2022/10/01 09:45:50;;;;;;;18.27;5.20;;;21.60;75.30;;;;;;6240520;23;20203;-89
2022/10/01 09:48:29;;;;;;;13.17;3.77;;;21.60;74.60;;;;;;6240657;23;20170;-88
2022/10/01 09:51:02;;;;;;;13.63;4.00;;;21.70;72.50;;;;;;6242244;23;20187;-88
2022/10/01 09:53:35;;;;;;;12.30;3.77;;;21.80;73.60;;;;;;6241176;23;20168;-87
2022/10/01 09:56:09;;;;;;;16.20;4.33;;;21.90;74.80;;;;;;6241108;23;20219;-91
2022/10/01 09:58:43;;;;;;;13.17;3.43;;;22.00;75.10;;;;;;6242222;23;20256;-88
2022/10/01 10:01:21;;;;;;;13.73;4.30;;;22.20;73.10;;;;;;6241485;23;20199;-94
2022/10/01 10:03:57;;;;;;;15.57;4.70;;;22.30;72.10;;;;;;6242021;23;20222;-87
2022/10/01 10:06:28;;;;;;;14.23;3.97;;;22.40;70.70;;;;;;6244780;23;20182;-92
2022/10/01 10:08:56;;;;;;;17.47;5.07;;;22.50;71.70;;;;;;6246507;23;20205;-89
2022/10/01 10:11:26;;;;;;;15.63;4.13;;;22.60;71.70;;;;;;6250005;23;20170;-87
2022/10/01 10:13:56;;;;;;;15.37;4.13;;;22.70;69.00;;;;;;6250144;23;20205;-89
2022/10/01 10:16:27;;;;;;;12.93;3.90;;;22.70;68.70;;;;;;6243262;23;20194;-88
2022/10/01 10:18:58;;;;;;;10.87;4.07;;;22.90;68.90;;;;;;6242090;23;20168;-88
2022/10/01 10:21:28;;;;;;;12.77;3.40;;;22.90;68.30;;;;;;6240698;23;20579;-88
2022/10/01 10:24:01;;;;;;;12.90;3.97;;;22.80;68.00;;;;;;6242948;23;20970;-89
2022/10/01 10:26:31;;;;;;;9.20;3.63;;;22.80;68.30;;;;;;6241156;23;20172;-87
2022/10/01 10:29:00;;;;;;;10.63;3.63;;;22.80;68.60;;;;;;6241691;23;20172;-87
2022/10/01 10:31:30;;;;;;;14.43;4.50;;;22.70;68.70;;;;;;6241182;23;20203;-88
2022/10/01 10:34:06;;;;;;;14.80;3.73;;;22.70;67.70;;;;;;6240602;23;20177;-86
2022/10/01 10:36:36;;;;;;;9.60;3.10;;;22.60;65.50;;;;;;6239888;23;20196;-90
2022/10/01 10:39:05;;;;;;;16.30;3.80;;;22.60;66.40;;;;;;6242211;23;20195;-92
2022/10/01 10:41:34;;;;;;;12.17;3.70;;;22.50;66.80;;;;;;6241877;23;20193;-88
2022/10/01 10:44:05;;;;;;;15.77;4.13;;;22.40;66.70;;;;;;6240297;23;20267;-89
2022/10/01 10:46:34;;;;;;;10.50;3.70;;;22.30;66.60;;;;;;6240967;23;20229;-88
2022/10/01 10:49:07;;;;;;;14.17;3.97;;;22.20;66.40;;;;;;6240438;23;20247;-88
2022/10/01 10:51:48;;;;;;;10.77;3.60;;;22.20;66.10;;;;;;6241641;23;20255;-89
2022/10/01 10:54:25;;;;;;;12.27;3.37;;;22.10;65.90;;;;;;6241350;23;20164;-88
2022/10/01 10:57:04;;;;;;;15.60;5.20;;;22.00;66.40;;;;;;6241297;23;20234;-90
2022/10/01 10:59:33;;;;;;;13.53;4.00;;;22.00;66.90;;;;;;6240704;23;20271;-88
2022/10/01 11:02:02;;;;;;;10.67;3.50;;;22.00;66.30;;;;;;6240482;23;20160;-94
2022/10/01 11:04:40;;;;;;;11.70;3.53;;;22.00;66.10;;;;;;6243830;23;20252;-89
2022/10/01 11:07:09;;;;;;;11.40;3.23;;;22.00;65.10;;;;;;6241393;23;20243;-89
2022/10/01 11:09:58;;;;;;;14.50;3.90;;;22.00;66.20;;;;;;6241482;23;20238;-90
2022/10/01 11:12:40;;;;;;;13.77;3.73;;;22.00;65.50;;;;;;6245127;23;20195;-94
2022/10/01 11:15:24;;;;;;;11.87;3.27;;;22.00;65.80;;;;;;6246402;23;20164;-94
2022/10/01 11:18:36;;;;;;;7.90;2.83;;;22.10;67.30;;;;;;6250289;23;20210;-93
2022/10/01 11:21:32;;;;;;;11.70;3.57;;;22.10;66.20;;;;;;6153453;23;20563;-88
2022/10/01 11:24:31;;;;;;;15.73;4.10;;;22.20;65.50;;;;;;6239871;23;20179;-95
2022/10/01 11:27:05;;;;;;;16.27;4.57;;;22.30;65.60;;;;;;6240644;23;20678;-89
2022/10/01 11:29:47;;;;;;;9.20;3.13;;;22.40;67.20;;;;;;6241116;23;20533;-90
2022/10/01 11:32:22;;;;;;;15.57;4.00;;;22.50;66.50;;;;;;6240584;23;20202;-89
2022/10/01 11:35:15;;;;;;;12.03;3.53;;;22.60;66.50;;;;;;6241944;23;20170;-90
2022/10/01 11:38:18;;;;;;;8.30;2.57;;;22.80;66.20;;;;;;6242864;23;20195;-90
2022/10/01 11:41:06;;;;;;;13.60;3.67;;;22.90;65.20;;;;;;6225072;23;20183;-90
2022/10/01 11:43:37;;;;;;;9.53;2.67;;;23.10;66.70;;;;;;6242160;23;20170;-89
2022/10/01 11:46:12;;;;;;;14.77;4.43;;;23.20;66.40;;;;;;6240162;23;20243;-88
2022/10/01 11:48:44;;;;;;;10.97;3.60;;;23.40;65.20;;;;;;6241132;23;20170;-90
2022/10/01 11:51:16;;;;;;;13.43;3.87;;;23.50;65.70;;;;;;6240181;23;20183;-91
2022/10/01 11:53:49;;;;;;;10.87;3.87;;;23.60;64.80;;;;;;6241620;23;20247;-92
2022/10/01 11:59:21;;;;;;;11.10;3.30;;;23.90;64.30;;;;;;6240761;23;20215;-89
2022/10/01 12:01:53;;;;;;;11.97;3.30;;;24.10;63.60;;;;;;6240362;23;20167;-90
2022/10/01 12:04:31;;;;;;;12.70;3.17;;;24.20;63.00;;;;;;6239695;23;20168;-89
2022/10/01 12:07:05;;;;;;;10.40;3.27;;;24.30;62.90;;;;;;6240545;23;20489;-91
2022/10/01 12:09:46;;;;;;;12.27;2.93;;;24.40;62.20;;;;;;6239098;23;20183;-90
2022/10/01 12:12:17;;;;;;;14.13;4.43;;;24.50;62.60;;;;;;6240172;23;20234;-90
2022/10/01 12:14:47;;;;;;;12.63;3.77;;;24.60;63.10;;;;;;6241231;23;20172;-92
2022/10/01 12:17:41;;;;;;;9.83;3.37;;;24.70;62.80;;;;;;6242829;23;20273;-92
2022/10/01 12:20:20;;;;;;;10.93;3.33;;;24.90;61.20;;;;;;6239557;23;20230;-91
2022/10/01 12:22:48;;;;;;;9.30;2.90;;;25.00;59.70;;;;;;6243039;23;20225;-93
2022/10/01 12:25:19;;;;;;;10.53;3.60;;;25.10;60.90;;;;;;6244658;23;20171;-94
2022/10/01 12:27:58;;;;;;;8.03;2.77;;;25.10;60.20;;;;;;6245743;23;20179;-92
2022/10/01 12:30:31;;;;;;;19.40;4.27;;;25.10;60.80;;;;;;6241786;23;20167;-90
2022/10/01 12:33:11;;;;;;;10.83;3.73;;;25.10;59.80;;;;;;6240767;23;20168;-92
2022/10/01 12:35:52;;;;;;;12.40;3.60;;;25.20;59.30;;;;;;6240154;23;20230;-92
2022/10/01 12:38:44;;;;;;;12.80;4.17;;;25.10;59.70;;;;;;6241107;23;20217;-89
2022/10/01 12:41:29;;;;;;;9.87;3.43;;;25.10;58.90;;;;;;6242010;23;20686;-89
2022/10/01 12:44:24;;;;;;;9.23;3.00;;;25.00;58.40;;;;;;6242331;23;20736;-92
2022/10/01 12:47:12;;;;;;;9.50;3.23;;;25.00;58.70;;;;;;6240893;23;20176;-90
2022/10/01 12:49:49;;;;;;;10.53;3.53;;;24.90;58.50;;;;;;6240432;23;20233;-90
2022/10/01 12:52:32;;;;;;;13.07;3.73;;;24.80;58.30;;;;;;6241229;23;20266;-93
2022/10/01 12:55:41;;;;;;;9.40;3.00;;;24.70;58.20;;;;;;6241390;23;20195;-93
2022/10/01 12:58:22;;;;;;;13.00;3.90;;;24.60;58.10;;;;;;6239726;23;20237;-90
2022/10/01 13:01:23;;;;;;;11.30;3.13;;;24.50;58.80;;;;;;6241815;23;20226;-90
2022/10/01 13:04:45;;;;;;;14.23;3.57;;;24.40;58.70;;;;;;6241189;23;20167;-88
2022/10/01 13:07:45;;;;;;;12.33;3.87;;;24.40;59.20;;;;;;6152588;23;20678;-89
2022/10/01 13:10:43;;;;;;;11.10;3.87;;;24.30;59.20;;;;;;6237117;23;20260;-95
2022/10/01 13:13:48;;;;;;;10.37;3.40;;;24.30;59.60;;;;;;6257747;23;20183;-91
2022/10/01 13:16:25;;;;;;;16.23;4.93;;;24.30;59.70;;;;;;6251377;23;20267;-93
2022/10/01 13:19:05;;;;;;;14.27;4.73;;;24.30;59.80;;;;;;6249833;23;20268;-92
2022/10/01 13:21:51;;;;;;;11.83;3.13;;;24.30;59.10;;;;;;6241137;23;20256;-90
2022/10/01 13:24:31;;;;;;;8.13;3.47;;;24.30;59.60;;;;;;6242204;23;20171;-91
2022/10/01 13:27:19;;;;;;;10.60;3.70;;;24.20;58.40;;;;;;6243970;23;20212;-90
2022/10/01 13:30:01;;;;;;;11.60;4.00;;;24.10;57.90;;;;;;6244773;23;20219;-89
2022/10/01 13:32:32;;;;;;;10.33;3.70;;;24.00;58.00;;;;;;6245141;23;20202;-88
2022/10/01 13:35:00;;;;;;;10.47;3.27;;;23.90;58.50;;;;;;6245743;23;20169;-91
2022/10/01 13:37:39;;;;;;;13.07;4.07;;;23.80;58.60;;;;;;6249060;23;20207;-89